Time;durP1;ratioP1;P1;durP2;ratioP2;P2;SDS_P1;SDS_P2;PMS_P1;PMS_P2;Temp;Humidity;BMP_temperature;BMP_pressure;BME280_temperature;BME280_humidity;BME280_pressure;Samples;Min_cycle;Max_cycle;Signal;HPM_P1;HPM_P2
2022/01/02 00:00:53;;;;;;;11.45;6.45;;;;;;;;;;5076445;28;20040;-92
2022/01/02 00:03:24;;;;;;;13.25;7.03;;;;;;;;;;5076165;28;20523;-92
2022/01/02 00:05:52;;;;;;;15.50;7.25;;;;;;;;;;5093090;28;20047;-92
2022/01/02 00:08:21;;;;;;;12.00;7.80;;;;;;;;;;5080488;28;20043;-91
2022/01/02 00:10:55;;;;;;;13.57;6.90;;;;;;;;;;5096706;28;20075;-92
2022/01/02 00:13:29;;;;;;;14.88;7.45;;;;;;;;;;5097470;28;20096;-92
2022/01/02 00:16:04;;;;;;;11.40;6.82;;;;;;;;;;5096687;28;20070;-92
2022/01/02 00:18:47;;;;;;;15.70;7.40;;;;;;;;;;5097022;28;20058;-92
2022/01/02 00:21:29;;;;;;;12.70;7.30;;;;;;;;;;5097535;28;20047;-92
2022/01/02 00:24:05;;;;;;;15.23;7.72;;;;;;;;;;5096431;28;20088;-92
2022/01/02 00:26:44;;;;;;;11.85;6.57;;;;;;;;;;5079049;28;20085;-92
2022/01/02 00:29:13;;;;;;;16.05;7.20;;;;;;;;;;5075979;28;20553;-92
2022/01/02 00:31:47;;;;;;;11.65;6.88;;;;;;;;;;5076369;28;20044;-91
2022/01/02 00:34:13;;;;;;;15.07;6.60;;;;;;;;;;5092742;28;20066;-91
2022/01/02 00:36:42;;;;;;;13.27;6.82;;;;;;;;;;5076618;28;20119;-92
2022/01/02 00:39:09;;;;;;;14.02;6.60;;;;;;;;;;5075933;28;20526;-92
2022/01/02 00:41:48;;;;;;;12.75;6.97;;;;;;;;;;5075975;28;20047;-91
2022/01/02 00:44:33;;;;;;;11.27;7.13;;;;;;;;;;5076238;28;20113;-92
2022/01/02 00:47:17;;;;;;;11.55;6.93;;;;;;;;;;5077187;28;20123;-91
2022/01/02 00:49:58;;;;;;;18.50;6.88;;;;;;;;;;5076663;28;20059;-92
2022/01/02 00:52:34;;;;;;;13.23;7.55;;;;;;;;;;5074974;28;20043;-91
2022/01/02 00:55:07;;;;;;;13.05;6.80;;;;;;;;;;5091395;28;20132;-92
2022/01/02 00:57:41;;;;;;;15.35;7.20;;;;;;;;;;5075771;28;20048;-92
2022/01/02 01:00:16;;;;;;;12.32;7.93;;;;;;;;;;5075939;28;20127;-92
2022/01/02 01:03:00;;;;;;;;;;;;;;;;;;;;;
2022/01/02 01:05:47;;;;;;;14.05;6.97;;;;;;;;;;5092407;28;20069;-91
2022/01/02 01:08:13;;;;;;;15.48;7.32;;;;;;;;;;5091684;28;20035;-91
2022/01/02 01:10:50;;;;;;;10.93;7.03;;;;;;;;;;5076431;28;20079;-92
2022/01/02 01:13:23;;;;;;;17.45;9.30;;;;;;;;;;5092449;28;20044;-91
2022/01/02 01:15:50;;;;;;;13.05;7.22;;;;;;;;;;5075106;28;20059;-91
2022/01/02 01:18:24;;;;;;;17.70;7.72;;;;;;;;;;5076937;28;20489;-92
2022/01/02 01:20:53;;;;;;;16.50;7.72;;;;;;;;;;5078217;28;20055;-92
2022/01/02 01:23:19;;;;;;;13.80;8.13;;;;;;;;;;5078181;28;20035;-92
2022/01/02 01:25:46;;;;;;;17.77;8.48;;;;;;;;;;5094466;28;20122;-92
2022/01/02 01:28:13;;;;;;;18.05;8.32;;;;;;;;;;5095485;28;20040;-92
2022/01/02 01:30:39;;;;;;;13.73;7.63;;;;;;;;;;5078542;28;20083;-91
2022/01/02 01:33:09;;;;;;;13.48;8.23;;;;;;;;;;5092952;28;20058;-92
2022/01/02 01:35:42;;;;;;;15.25;8.43;;;;;;;;;;5078199;28;20044;-91
2022/01/02 01:38:17;;;;;;;16.80;8.98;;;;;;;;;;5078611;28;20136;-92
2022/01/02 01:40:58;;;;;;;15.80;8.65;;;;;;;;;;5079380;28;20052;-92
2022/01/02 01:55:58;;;;;;;21.75;9.20;;;11.10;99.90;;;;;;5080796;22;20507;-65
2022/01/02 01:58:23;;;;;;;17.27;8.93;;;10.40;99.90;;;;;;5074307;28;20179;-65
2022/01/02 02:00:49;;;;;;;17.13;9.43;;;10.90;99.90;;;;;;5074898;28;20081;-65
2022/01/02 02:03:15;;;;;;;19.05;8.85;;;10.90;99.90;;;;;;5092091;28;20033;-65
2022/01/02 02:05:42;;;;;;;17.05;9.57;;;10.80;99.90;;;;;;5095073;28;20039;-64
2022/01/02 02:08:09;;;;;;;19.40;10.82;;;10.90;99.90;;;;;;5094517;28;20055;-64
2022/01/02 02:10:38;;;;;;;16.75;11.00;;;10.70;99.90;;;;;;5096232;28;20452;-64
2022/01/02 02:13:05;;;;;;;21.38;12.05;;;11.00;99.90;;;;;;5094129;28;20099;-65
2022/01/02 02:15:31;;;;;;;23.00;12.77;;;11.30;99.90;;;;;;5093651;28;20043;-65
2022/01/02 02:17:57;;;;;;;22.00;12.18;;;10.90;99.90;;;;;;5093377;28;20039;-65
2022/01/02 02:20:27;;;;;;;29.15;12.85;;;10.70;99.90;;;;;;5075133;28;20092;-64
2022/01/02 02:22:55;;;;;;;25.83;13.23;;;10.70;99.90;;;;;;5076407;28;20075;-65
2022/01/02 02:25:27;;;;;;;24.42;14.02;;;10.70;99.90;;;;;;5094549;28;20720;-64
2022/01/02 02:27:59;;;;;;;27.15;14.75;;;10.40;99.90;;;;;;5091590;28;20032;-65
2022/01/02 02:30:27;;;;;;;30.80;14.68;;;10.70;99.90;;;;;;5092715;28;20039;-64
2022/01/02 02:32:57;;;;;;;24.23;14.82;;;10.70;99.90;;;;;;5092571;28;20378;-65
2022/01/02 02:35:24;;;;;;;28.95;15.80;;;10.90;99.90;;;;;;5091965;28;20044;-65
2022/01/02 02:37:50;;;;;;;29.88;16.02;;;10.00;99.90;;;;;;5091389;28;20042;-64
2022/01/02 02:40:17;;;;;;;26.77;15.90;;;;;;;;;;5092141;28;20028;-65
2022/01/02 02:42:51;;;;;;;28.55;15.55;;;10.90;99.90;;;;;;5091555;28;20135;-64
2022/01/02 02:51:08;;;;;;;31.00;16.83;;;10.10;99.90;;;;;;5092877;28;20061;-64
2022/01/02 02:53:41;;;;;;;34.15;18.10;;;10.60;99.90;;;;;;5068078;28;20066;-64
2022/01/02 02:56:16;;;;;;;31.83;17.85;;;10.50;99.90;;;;;;5044139;28;20083;-65
2022/01/02 02:58:42;;;;;;;29.02;16.17;;;10.60;99.90;;;;;;5069698;28;20032;-65
2022/01/02 03:01:13;;;;;;;36.40;17.75;;;9.90;99.90;;;;;;5052871;28;20119;-65
2022/01/02 03:03:39;;;;;;;33.55;18.23;;;9.90;99.90;;;;;;5071799;28;20036;-65
2022/01/02 03:06:05;;;;;;;30.45;18.67;;;;;;;;;;5071109;28;20385;-65
2022/01/02 03:08:32;;;;;;;35.50;18.60;;;10.20;99.90;;;;;;5071515;28;20036;-65
2022/01/02 03:10:58;;;;;;;36.30;18.77;;;10.70;99.90;;;;;;5071465;28;20037;-65
2022/01/02 03:13:24;;;;;;;33.85;19.90;;;10.30;99.90;;;;;;5073021;28;20123;-65
2022/01/02 03:15:50;;;;;;;43.25;22.73;;;10.80;99.90;;;;;;5091494;28;20052;-65
2022/01/02 03:18:16;;;;;;;37.15;19.48;;;9.80;99.90;;;;;;5073477;28;20036;-65
2022/01/02 03:20:41;;;;;;;37.70;21.35;;;10.20;99.90;;;;;;5092039;28;20048;-64
2022/01/02 03:23:07;;;;;;;33.47;19.33;;;10.30;99.90;;;;;;5091899;28;20039;-64
2022/01/02 03:25:33;;;;;;;34.03;19.30;;;10.80;99.90;;;;;;5092219;28;20051;-64
2022/01/02 03:27:58;;;;;;;31.38;18.73;;;9.90;99.90;;;;;;5092693;28;20436;-65
2022/01/02 03:30:24;;;;;;;38.45;19.60;;;10.20;99.90;;;;;;5092846;28;20036;-64
2022/01/02 03:32:49;;;;;;;35.58;20.48;;;10.20;99.90;;;;;;5098151;28;20414;-64
2022/01/02 03:35:15;;;;;;;35.70;20.13;;;9.90;99.90;;;;;;5095155;28;20466;-65
2022/01/02 03:37:41;;;;;;;35.53;19.33;;;10.80;99.90;;;;;;5095608;28;20036;-65
2022/01/02 03:40:09;;;;;;;33.00;16.98;;;10.70;99.90;;;;;;5095269;28;20097;-65
2022/01/02 03:42:35;;;;;;;40.08;19.73;;;10.60;99.90;;;;;;5095642;28;20032;-65
2022/01/02 03:45:02;;;;;;;41.22;19.30;;;10.70;99.90;;;;;;5076179;28;20043;-65
2022/01/02 03:47:28;;;;;;;35.10;18.77;;;10.00;99.90;;;;;;5077048;28;20040;-65
2022/01/02 03:49:57;;;;;;;38.30;19.70;;;10.30;99.90;;;;;;5090875;28;20170;-65
2022/01/02 03:52:23;;;;;;;35.90;19.23;;;9.90;99.90;;;;;;5075481;28;20036;-65
2022/01/02 03:54:49;;;;;;;31.80;16.85;;;10.50;99.90;;;;;;5056158;28;20048;-65
2022/01/02 03:57:14;;;;;;;33.25;16.60;;;10.70;99.90;;;;;;5075271;28;20036;-66
2022/01/02 03:59:40;;;;;;;40.63;18.23;;;10.50;99.90;;;;;;5056858;28;20036;-65
2022/01/02 04:02:06;;;;;;;36.47;18.05;;;10.40;99.90;;;;;;5075532;28;20067;-65
2022/01/02 04:04:31;;;;;;;36.42;17.63;;;10.50;99.90;;;;;;5075133;28;20041;-65
2022/01/02 04:06:57;;;;;;;31.80;17.63;;;10.60;99.90;;;;;;5077335;28;20090;-65
2022/01/02 04:09:22;;;;;;;33.13;18.52;;;10.00;99.90;;;;;;5076611;28;20036;-65
2022/01/02 04:11:48;;;;;;;29.75;16.05;;;;;;;;;;5074736;28;20036;-65
2022/01/02 04:14:14;;;;;;;31.63;17.05;;;10.30;99.90;;;;;;5074784;28;20044;-65
2022/01/02 04:16:39;;;;;;;35.13;17.98;;;9.90;99.90;;;;;;5074338;28;20102;-65
2022/01/02 04:19:05;;;;;;;32.28;17.60;;;10.20;99.90;;;;;;5074525;28;20029;-64
2022/01/02 04:21:31;;;;;;;30.98;17.92;;;10.40;99.90;;;;;;5074801;28;20383;-65
2022/01/02 04:23:56;;;;;;;33.35;18.83;;;10.60;99.90;;;;;;5074256;28;20036;-65
2022/01/02 04:26:22;;;;;;;36.22;19.23;;;10.30;99.90;;;;;;5039467;28;20051;-64
2022/01/02 04:28:48;;;;;;;41.30;20.27;;;10.40;99.90;;;;;;5075250;28;20091;-65
2022/01/02 04:31:14;;;;;;;34.33;18.92;;;10.40;99.90;;;;;;5074423;28;20510;-65
2022/01/02 04:33:40;;;;;;;33.72;18.85;;;10.20;99.90;;;;;;5074438;28;20060;-65
2022/01/02 04:36:05;;;;;;;35.63;18.33;;;10.10;99.90;;;;;;5055472;28;20036;-65
2022/01/02 04:38:31;;;;;;;36.03;20.85;;;10.70;99.90;;;;;;5073961;28;20072;-65
2022/01/02 04:40:57;;;;;;;39.35;20.67;;;10.40;99.90;;;;;;5073897;28;20048;-64
2022/01/02 04:43:22;;;;;;;37.00;20.02;;;10.40;99.90;;;;;;5072936;28;20040;-64
2022/01/02 04:45:48;;;;;;;37.78;20.65;;;10.00;99.90;;;;;;5074332;28;20044;-64
2022/01/02 04:48:14;;;;;;;44.17;21.63;;;10.10;99.90;;;;;;5074683;28;20071;-63
2022/01/02 04:50:40;;;;;;;38.45;20.35;;;10.70;99.90;;;;;;5071435;28;20044;-64
2022/01/02 04:53:06;;;;;;;34.92;20.30;;;10.30;99.90;;;;;;5076149;28;20113;-64
2022/01/02 04:55:32;;;;;;;41.53;21.52;;;10.80;99.90;;;;;;5093849;28;20040;-64
2022/01/02 04:57:57;;;;;;;41.35;21.75;;;10.70;99.90;;;;;;5075349;28;20039;-64
2022/01/02 05:00:23;;;;;;;42.47;22.40;;;10.00;99.90;;;;;;5094109;28;20035;-64
2022/01/02 05:02:52;;;;;;;41.72;21.45;;;10.40;99.90;;;;;;5093957;28;20032;-65
2022/01/02 05:05:18;;;;;;;40.05;20.73;;;10.40;99.90;;;;;;5094160;28;20105;-64
2022/01/02 05:07:44;;;;;;;47.53;24.13;;;9.90;99.90;;;;;;5093644;28;20044;-64
2022/01/02 05:10:10;;;;;;;36.75;20.55;;;9.90;99.90;;;;;;5094245;28;20032;-64
2022/01/02 05:12:36;;;;;;;38.75;20.42;;;10.60;99.90;;;;;;5075538;28;20043;-63
2022/01/02 05:15:03;;;;;;;38.60;20.40;;;10.70;99.90;;;;;;5075233;28;20402;-64
2022/01/02 05:17:28;;;;;;;36.33;19.88;;;10.90;99.90;;;;;;5093415;28;20051;-63
2022/01/02 05:19:54;;;;;;;38.10;18.52;;;9.90;99.90;;;;;;5093372;28;20046;-64
2022/01/02 05:22:19;;;;;;;39.13;20.17;;;10.50;99.90;;;;;;5093939;28;20032;-64
2022/01/02 05:24:45;;;;;;;33.45;19.13;;;10.30;99.90;;;;;;5093676;28;20035;-64
2022/01/02 05:27:13;;;;;;;38.17;17.95;;;10.60;99.90;;;;;;5094280;28;20051;-64
2022/01/02 05:29:39;;;;;;;41.50;19.40;;;10.80;99.90;;;;;;5093699;28;20055;-64
2022/01/02 05:32:04;;;;;;;37.95;20.10;;;10.60;99.90;;;;;;5092944;28;20494;-64
2022/01/02 05:34:30;;;;;;;38.97;20.00;;;10.40;99.90;;;;;;5093386;28;20097;-64
2022/01/02 05:36:56;;;;;;;41.08;18.85;;;10.30;99.90;;;;;;5093413;28;20482;-64
2022/01/02 05:39:23;;;;;;;42.90;20.63;;;10.70;99.90;;;;;;5084312;28;20037;-65
2022/01/02 05:41:50;;;;;;;41.15;19.25;;;10.50;99.90;;;;;;5067088;28;20090;-65
2022/01/02 05:44:17;;;;;;;31.58;17.00;;;10.50;99.90;;;;;;5074394;28;20047;-64
2022/01/02 05:46:43;;;;;;;35.50;17.00;;;10.70;99.90;;;;;;5085470;28;20042;-64
2022/01/02 05:49:09;;;;;;;34.90;16.20;;;10.40;99.90;;;;;;5092810;28;20032;-65
2022/01/02 05:51:35;;;;;;;35.92;13.85;;;10.40;99.90;;;;;;5092753;28;20047;-64
2022/01/02 05:54:01;;;;;;;33.17;14.15;;;10.70;99.90;;;;;;5092767;28;20044;-65
2022/01/02 05:56:27;;;;;;;30.58;13.93;;;10.70;99.90;;;;;;5092422;28;20043;-65
2022/01/02 05:58:52;;;;;;;32.97;13.43;;;10.20;99.90;;;;;;5074582;28;20033;-65
2022/01/02 06:01:18;;;;;;;29.35;12.98;;;10.80;99.90;;;;;;5054397;28;20036;-64
2022/01/02 06:03:43;;;;;;;27.00;13.85;;;11.10;99.90;;;;;;5072719;28;20040;-65
2022/01/02 06:06:09;;;;;;;30.98;15.45;;;10.90;99.90;;;;;;5072098;28;20076;-64
2022/01/02 06:08:34;;;;;;;26.23;14.25;;;10.40;99.90;;;;;;5072171;28;20074;-65
2022/01/02 06:11:00;;;;;;;41.03;16.60;;;10.80;99.90;;;;;;5071637;28;20036;-65
2022/01/02 06:13:26;;;;;;;34.08;16.85;;;11.10;99.90;;;;;;5072446;28;20140;-64
2022/01/02 06:15:53;;;;;;;35.33;16.25;;;10.90;99.90;;;;;;5072419;28;20064;-64
2022/01/02 06:18:19;;;;;;;33.72;15.60;;;10.60;99.90;;;;;;5071691;28;20521;-64
2022/01/02 06:20:44;;;;;;;29.30;14.23;;;10.60;99.90;;;;;;5070088;28;20044;-64
2022/01/02 06:23:10;;;;;;;30.45;14.70;;;10.50;99.90;;;;;;5072152;28;20037;-64
2022/01/02 06:25:35;;;;;;;26.40;13.85;;;11.10;99.90;;;;;;5074716;28;20077;-64
2022/01/02 06:28:01;;;;;;;25.80;12.27;;;;;;;;;;5087897;28;20082;-64
2022/01/02 06:30:27;;;;;;;22.13;11.45;;;10.50;99.90;;;;;;5063864;28;20471;-65
2022/01/02 06:32:56;;;;;;;24.75;11.52;;;10.90;99.90;;;;;;5071769;28;20037;-64
2022/01/02 06:35:26;;;;;;;20.83;10.93;;;10.50;99.90;;;;;;5081529;28;20042;-64
2022/01/02 06:37:53;;;;;;;22.38;10.52;;;10.70;99.90;;;;;;5091668;28;20036;-65
2022/01/02 06:40:19;;;;;;;23.13;9.63;;;10.30;99.90;;;;;;5073647;28;20124;-64
2022/01/02 06:42:45;;;;;;;19.65;9.05;;;10.80;99.90;;;;;;5094466;28;20040;-65
2022/01/02 06:45:11;;;;;;;24.00;8.85;;;10.80;99.90;;;;;;5092112;28;20040;-65
2022/01/02 06:47:36;;;;;;;25.48;10.05;;;11.00;99.90;;;;;;5079764;28;20398;-65
2022/01/02 06:50:03;;;;;;;23.10;8.25;;;10.60;99.90;;;;;;5071680;28;20123;-65
2022/01/02 06:52:29;;;;;;;22.70;8.18;;;10.60;99.90;;;;;;5071844;28;20036;-65
2022/01/02 06:54:54;;;;;;;18.33;7.25;;;10.80;99.90;;;;;;5070918;28;20047;-66
2022/01/02 06:57:21;;;;;;;15.90;7.63;;;11.00;99.90;;;;;;5071780;28;20071;-65
2022/01/02 06:59:48;;;;;;;17.70;7.82;;;10.70;99.90;;;;;;5071669;28;20040;-65
2022/01/02 07:02:14;;;;;;;14.65;7.45;;;11.00;99.90;;;;;;5073060;28;20033;-65
2022/01/02 07:04:40;;;;;;;20.73;8.32;;;10.80;99.90;;;;;;5072090;28;20048;-65
2022/01/02 07:07:05;;;;;;;22.25;8.43;;;11.20;99.90;;;;;;5071865;28;20509;-65
2022/01/02 07:09:32;;;;;;;19.98;8.45;;;10.70;99.90;;;;;;5072562;28;20040;-64
2022/01/02 07:11:58;;;;;;;18.73;7.13;;;10.80;99.90;;;;;;5053559;28;20071;-65
2022/01/02 07:14:26;;;;;;;23.13;8.65;;;10.80;99.90;;;;;;5071451;28;20048;-65
2022/01/02 07:16:56;;;;;;;18.55;7.53;;;10.90;99.90;;;;;;5071158;28;20494;-65
2022/01/02 07:19:21;;;;;;;17.70;8.25;;;10.60;99.90;;;;;;5071007;28;20047;-65
2022/01/02 07:21:48;;;;;;;16.55;7.43;;;10.90;99.90;;;;;;5070882;28;20124;-65
2022/01/02 07:24:15;;;;;;;16.90;7.97;;;11.40;99.90;;;;;;5081629;28;20558;-65
2022/01/02 07:26:41;;;;;;;20.73;8.63;;;11.00;99.90;;;;;;5091343;28;20036;-65
2022/01/02 07:29:07;;;;;;;20.50;7.45;;;;;;;;;;5073320;28;20082;-65
2022/01/02 07:31:33;;;;;;;16.90;7.50;;;;;;;;;;5056810;28;20033;-65
2022/01/02 07:33:58;;;;;;;15.45;6.57;;;11.00;99.90;;;;;;5057826;28;20513;-65
2022/01/02 07:36:24;;;;;;;15.65;7.00;;;11.00;99.90;;;;;;5055558;28;20079;-65
2022/01/02 07:38:50;;;;;;;16.77;7.55;;;10.70;99.90;;;;;;5038053;28;20044;-65
2022/01/02 07:41:15;;;;;;;17.23;6.28;;;10.90;99.90;;;;;;5064570;28;20036;-64
2022/01/02 07:43:42;;;;;;;15.40;6.63;;;;;;;;;;5077222;28;20024;-65
2022/01/02 07:46:08;;;;;;;18.42;7.20;;;;;;;;;;5057779;28;20406;-64
2022/01/02 07:48:33;;;;;;;16.63;7.43;;;11.10;99.90;;;;;;5076847;28;20040;-65
2022/01/02 07:50:59;;;;;;;13.63;6.60;;;;;;;;;;5075675;28;20036;-65
2022/01/02 07:53:25;;;;;;;10.52;6.10;;;11.40;99.90;;;;;;5072911;28;20127;-65
2022/01/02 07:55:50;;;;;;;13.95;7.03;;;10.90;99.90;;;;;;5072265;28;20087;-66
2022/01/02 07:58:16;;;;;;;14.55;6.28;;;11.40;99.90;;;;;;5037221;28;20094;-65
2022/01/02 08:00:42;;;;;;;11.68;6.30;;;10.60;99.90;;;;;;5052985;28;20114;-65
2022/01/02 08:03:08;;;;;;;11.85;6.35;;;10.70;99.90;;;;;;5071863;28;20049;-65
2022/01/02 08:05:33;;;;;;;14.30;7.05;;;10.60;99.90;;;;;;5070974;28;20112;-65
2022/01/02 08:07:59;;;;;;;12.35;6.80;;;10.90;99.90;;;;;;5069468;28;20086;-65
2022/01/02 08:10:26;;;;;;;15.18;7.68;;;10.80;99.90;;;;;;5071286;28;20025;-65
2022/01/02 08:12:53;;;;;;;15.23;9.70;;;11.20;99.90;;;;;;5057228;28;20033;-65
2022/01/02 08:15:19;;;;;;;19.38;10.52;;;10.40;99.90;;;;;;5055014;28;20456;-65
2022/01/02 08:17:45;;;;;;;21.25;12.27;;;10.70;99.90;;;;;;5052270;28;20052;-66
2022/01/02 08:20:10;;;;;;;19.83;10.30;;;10.80;99.90;;;;;;5056267;28;20032;-65
2022/01/02 08:22:36;;;;;;;22.05;12.30;;;10.70;99.90;;;;;;5058575;28;20029;-65
2022/01/02 08:25:03;;;;;;;17.55;10.85;;;10.70;99.90;;;;;;5054200;28;20033;-64
2022/01/02 08:27:29;;;;;;;12.95;9.65;;;10.30;99.90;;;;;;5066966;28;20029;-65
2022/01/02 08:29:55;;;;;;;17.10;10.70;;;10.90;99.90;;;;;;5067239;28;20029;-64
2022/01/02 08:32:21;;;;;;;20.90;11.73;;;10.60;99.90;;;;;;5064754;28;20044;-65
2022/01/02 08:34:46;;;;;;;19.58;13.18;;;10.90;99.90;;;;;;5065228;28;20045;-64
2022/01/02 08:37:14;;;;;;;20.52;12.52;;;10.70;99.90;;;;;;5072306;28;20047;-64
2022/01/02 08:39:42;;;;;;;17.13;11.70;;;10.60;99.90;;;;;;5073787;28;20047;-64
2022/01/02 08:42:08;;;;;;;19.40;11.32;;;10.80;99.90;;;;;;5074864;28;20033;-64
2022/01/02 08:44:33;;;;;;;20.60;12.15;;;10.90;99.90;;;;;;5074949;28;20040;-64
2022/01/02 08:46:59;;;;;;;14.43;10.48;;;10.40;99.90;;;;;;5073287;28;20055;-65
2022/01/02 08:49:25;;;;;;;16.48;11.25;;;11.00;99.90;;;;;;5074402;28;20029;-64
2022/01/02 08:51:50;;;;;;;13.98;11.07;;;10.60;99.90;;;;;;5055538;28;20051;-63
2022/01/02 08:54:16;;;;;;;18.77;12.98;;;10.10;99.90;;;;;;5073160;28;20072;-64
2022/01/02 08:56:42;;;;;;;19.42;13.35;;;10.90;99.90;;;;;;5073856;28;20044;-64
2022/01/02 08:59:07;;;;;;;16.58;11.88;;;10.90;99.90;;;;;;5074238;28;20135;-64
2022/01/02 09:01:33;;;;;;;17.30;12.60;;;10.70;99.90;;;;;;5073126;28;20032;-64
2022/01/02 09:03:59;;;;;;;16.98;12.48;;;10.80;99.90;;;;;;5055157;28;20086;-63
2022/01/02 09:06:24;;;;;;;18.92;11.77;;;10.70;99.90;;;;;;5069371;28;20084;-64
2022/01/02 09:08:50;;;;;;;17.98;12.65;;;10.20;99.90;;;;;;5072840;28;20399;-64
2022/01/02 09:11:15;;;;;;;17.67;11.68;;;11.00;99.90;;;;;;5093025;28;20075;-64
2022/01/02 09:13:41;;;;;;;19.80;12.50;;;10.70;99.90;;;;;;5076725;28;20498;-64
2022/01/02 09:16:07;;;;;;;19.00;13.25;;;10.30;99.90;;;;;;5074034;28;20040;-64
2022/01/02 09:18:33;;;;;;;17.92;13.95;;;11.00;99.90;;;;;;5072930;28;20040;-64
2022/01/02 09:20:59;;;;;;;20.38;13.85;;;10.90;99.90;;;;;;5081363;28;20151;-64
2022/01/02 09:23:25;;;;;;;19.35;13.88;;;10.30;99.90;;;;;;5083555;28;20063;-64
2022/01/02 09:25:50;;;;;;;20.40;14.13;;;10.40;99.90;;;;;;5072801;28;20040;-64
2022/01/02 09:28:16;;;;;;;17.05;12.48;;;10.30;99.90;;;;;;5072725;28;20031;-64
2022/01/02 09:30:42;;;;;;;15.32;11.35;;;10.90;99.90;;;;;;5071687;28;20036;-64
2022/01/02 09:33:08;;;;;;;17.58;11.35;;;10.50;99.90;;;;;;5077397;28;20032;-64
2022/01/02 09:35:36;;;;;;;19.38;12.05;;;10.80;99.90;;;;;;5054095;28;20053;-64
2022/01/02 09:38:01;;;;;;;18.10;11.90;;;10.40;99.90;;;;;;5057388;28;20459;-64
2022/01/02 09:40:29;;;;;;;18.92;11.68;;;10.10;99.90;;;;;;5073719;28;20113;-64
2022/01/02 09:42:57;;;;;;;17.15;11.20;;;10.10;99.90;;;;;;5060688;28;20388;-64
2022/01/02 09:45:23;;;;;;;18.95;12.27;;;10.10;99.90;;;;;;5060762;28;20046;-64
2022/01/02 09:47:50;;;;;;;20.45;13.18;;;10.20;99.90;;;;;;5072779;28;20502;-63
2022/01/02 09:50:18;;;;;;;17.30;11.63;;;10.70;99.90;;;;;;5068466;28;20048;-63
2022/01/02 09:52:46;;;;;;;19.25;12.07;;;10.20;99.90;;;;;;5058575;28;20044;-64
2022/01/02 09:55:12;;;;;;;18.73;12.75;;;10.20;99.90;;;;;;5038617;28;20478;-63
2022/01/02 09:57:43;;;;;;;19.08;12.50;;;10.20;99.90;;;;;;5057141;28;20032;-64
2022/01/02 10:00:09;;;;;;;21.17;12.20;;;10.60;99.90;;;;;;5053813;28;20090;-64
2022/01/02 10:03:01;;;;;;;21.33;13.20;;;10.20;99.90;;;;;;5036961;28;20063;-64
2022/01/02 10:05:29;;;;;;;19.33;13.10;;;10.50;99.90;;;;;;5038653;28;20040;-64
2022/01/02 10:07:56;;;;;;;19.10;13.00;;;10.90;99.90;;;;;;5059103;28;20402;-63
2022/01/02 10:10:33;;;;;;;21.15;13.25;;;10.60;99.90;;;;;;5054636;28;20041;-64
2022/01/02 10:13:01;;;;;;;19.05;12.73;;;10.40;99.90;;;;;;5038835;28;20064;-66
2022/01/02 10:15:28;;;;;;;24.30;12.93;;;10.80;99.90;;;;;;5053746;28;20041;-63
2022/01/02 10:18:08;;;;;;;21.45;12.40;;;10.00;99.90;;;;;;5052747;28;20037;-64
2022/01/02 10:20:43;;;;;;;23.05;12.25;;;10.20;99.90;;;;;;5052389;28;20033;-64
2022/01/02 10:23:15;;;;;;;19.02;10.15;;;10.10;99.90;;;;;;5052304;28;20043;-64
2022/01/02 10:26:03;;;;;;;16.92;10.13;;;10.60;99.90;;;;;;5050431;28;20049;-64
2022/01/02 10:28:36;;;;;;;22.50;10.52;;;10.60;99.90;;;;;;5051870;28;20419;-64
2022/01/02 10:31:02;;;;;;;21.52;9.38;;;10.60;99.90;;;;;;5060000;28;20029;-64
2022/01/02 10:33:31;;;;;;;23.55;9.25;;;10.40;99.90;;;;;;5044218;28;20514;-64
2022/01/02 10:36:02;;;;;;;27.27;8.15;;;10.70;99.90;;;;;;5047013;28;20402;-65
2022/01/02 10:38:30;;;;;;;23.20;8.82;;;10.50;99.90;;;;;;5066250;28;20037;-63
2022/01/02 10:40:56;;;;;;;23.83;8.15;;;10.40;99.90;;;;;;5062679;28;20127;-63
2022/01/02 10:43:31;;;;;;;21.10;9.05;;;10.60;99.90;;;;;;5054792;28;20029;-63
2022/01/02 10:45:59;;;;;;;20.73;6.88;;;10.30;99.90;;;;;;5052023;28;20037;-64
2022/01/02 10:48:40;;;;;;;22.38;7.30;;;10.90;99.90;;;;;;5055946;28;20029;-64
2022/01/02 10:51:11;;;;;;;23.80;8.05;;;10.80;99.90;;;;;;5051188;28;20359;-64
2022/01/02 10:53:50;;;;;;;19.42;7.18;;;11.10;99.90;;;;;;5045581;28;20399;-63
2022/01/02 10:56:16;;;;;;;20.65;7.60;;;11.40;99.90;;;;;;5032899;28;20499;-64
2022/01/02 10:58:46;;;;;;;25.48;8.05;;;11.10;99.90;;;;;;5060929;28;20487;-64
2022/01/02 11:01:12;;;;;;;21.60;6.82;;;11.00;99.90;;;;;;5067558;28;20041;-64
2022/01/02 11:03:38;;;;;;;24.17;7.20;;;10.90;99.90;;;;;;5063605;28;20039;-63
2022/01/02 11:06:07;;;;;;;18.70;7.50;;;10.90;99.90;;;;;;5068563;28;20391;-63
2022/01/02 11:08:35;;;;;;;24.05;6.88;;;11.00;99.90;;;;;;5052472;28;20033;-64
2022/01/02 11:11:02;;;;;;;19.55;6.47;;;10.90;99.90;;;;;;5047034;28;20128;-64
2022/01/02 11:13:28;;;;;;;24.48;6.88;;;10.90;99.90;;;;;;5038113;28;20041;-64
2022/01/02 11:15:54;;;;;;;16.58;5.75;;;11.00;99.90;;;;;;5022052;28;20055;-64
2022/01/02 11:18:21;;;;;;;24.80;6.70;;;10.70;99.90;;;;;;5053624;28;20041;-64
2022/01/02 11:20:49;;;;;;;15.60;5.82;;;11.30;99.90;;;;;;5059841;28;20517;-63
2022/01/02 11:23:35;;;;;;;21.77;6.82;;;11.40;99.90;;;;;;5054082;28;20045;-64
2022/01/02 11:26:07;;;;;;;12.40;4.78;;;11.30;99.90;;;;;;5007584;28;20522;-65
2022/01/02 11:28:59;;;;;;;16.17;5.68;;;11.10;99.90;;;;;;5060208;28;20115;-63
2022/01/02 11:31:40;;;;;;;21.13;6.30;;;11.30;99.90;;;;;;5055595;28;20045;-63
2022/01/02 11:34:24;;;;;;;25.05;6.22;;;10.90;99.90;;;;;;5039312;28;20182;-63
2022/01/02 11:36:52;;;;;;;23.13;6.50;;;11.10;99.90;;;;;;5063563;28;20045;-62
2022/01/02 11:39:18;;;;;;;17.52;5.63;;;11.00;99.90;;;;;;5067382;28;20111;-63
2022/01/02 11:41:51;;;;;;;22.52;5.47;;;11.10;99.90;;;;;;5054346;28;20583;-64
2022/01/02 11:44:19;;;;;;;19.67;5.68;;;10.90;99.90;;;;;;5053019;28;20120;-61
2022/01/02 11:46:51;;;;;;;18.15;5.35;;;11.00;99.90;;;;;;5052614;28;20052;-62
2022/01/02 11:49:22;;;;;;;24.02;5.00;;;10.70;99.90;;;;;;5043161;28;20056;-61
2022/01/02 11:51:48;;;;;;;20.67;5.35;;;11.80;99.90;;;;;;5041918;28;20051;-61
2022/01/02 11:54:32;;;;;;;16.13;4.97;;;11.10;99.90;;;;;;5043591;28;20578;-62
2022/01/02 11:57:02;;;;;;;16.25;4.22;;;11.00;99.90;;;;;;5031832;28;20043;-62
2022/01/02 11:59:39;;;;;;;20.63;6.35;;;11.20;99.90;;;;;;5032282;28;20111;-62
2022/01/02 12:02:26;;;;;;;16.75;6.35;;;11.10;99.90;;;;;;5056653;28;20051;-62
2022/01/02 12:07:37;;;;;;;24.67;4.88;;;11.40;99.90;;;;;;5065300;28;20041;-61
2022/01/02 12:10:47;;;;;;;16.63;4.28;;;10.60;99.90;;;;;;5064132;28;20078;-62
2022/01/02 12:13:20;;;;;;;20.90;5.47;;;11.10;99.90;;;;;;5066816;28;20063;-61
2022/01/02 12:15:45;;;;;;;17.55;5.25;;;11.30;99.90;;;;;;5067799;28;20042;-62
2022/01/02 12:18:27;;;;;;;17.85;3.95;;;11.20;99.90;;;;;;5062244;28;20120;-62
2022/01/02 12:20:52;;;;;;;14.45;4.30;;;11.10;99.90;;;;;;5059715;28;20041;-62
2022/01/02 12:26:04;;;;;;;15.02;5.40;;;11.10;99.90;;;;;;5063741;28;20553;-62
2022/01/02 12:28:56;;;;;;;20.83;4.38;;;11.10;99.90;;;;;;5048606;28;20156;-62
2022/01/02 12:31:28;;;;;;;23.23;4.10;;;11.50;99.90;;;;;;5061536;28;20041;-63
2022/01/02 12:33:54;;;;;;;16.02;4.82;;;11.70;99.90;;;;;;5066053;28;20032;-62
2022/01/02 12:36:21;;;;;;;18.13;5.07;;;11.00;99.90;;;;;;5057772;28;20502;-62
2022/01/02 12:38:49;;;;;;;20.38;5.10;;;11.30;99.90;;;;;;5062861;28;20048;-62
2022/01/02 12:41:18;;;;;;;15.27;4.55;;;11.00;99.90;;;;;;5060723;28;20078;-63
2022/01/02 12:43:59;;;;;;;16.15;4.28;;;11.00;99.90;;;;;;5058716;28;20033;-63
2022/01/02 12:46:47;;;;;;;17.70;3.92;;;10.80;99.90;;;;;;5037305;28;20079;-63
2022/01/02 12:49:15;;;;;;;19.98;5.32;;;10.70;99.90;;;;;;5062153;28;20449;-64
2022/01/02 12:51:52;;;;;;;20.33;4.20;;;11.10;99.90;;;;;;5055171;28;20410;-61
2022/01/02 12:54:20;;;;;;;13.85;4.50;;;11.20;99.90;;;;;;5072944;28;20047;-60
2022/01/02 12:56:51;;;;;;;12.68;4.72;;;10.30;99.90;;;;;;5066779;28;20405;-62
2022/01/02 12:59:18;;;;;;;16.67;4.35;;;11.10;99.90;;;;;;5061806;28;20036;-61
2022/01/02 13:01:51;;;;;;;18.08;4.30;;;;;;;;;;5065886;28;20124;-61
2022/01/02 13:04:17;;;;;;;16.80;4.28;;;11.30;99.90;;;;;;5054421;28;20037;-61
2022/01/02 13:06:53;;;;;;;15.27;3.97;;;10.30;99.90;;;;;;5066433;28;20545;-62
2022/01/02 13:09:31;;;;;;;21.25;5.03;;;10.30;99.90;;;;;;5063137;28;20451;-60
2022/01/02 13:11:59;;;;;;;26.70;7.40;;;10.70;99.90;;;;;;5053232;28;20483;-60
2022/01/02 13:14:32;;;;;;;20.80;4.38;;;10.20;99.90;;;;;;5052862;28;20049;-61
2022/01/02 13:16:58;;;;;;;20.20;5.00;;;;;;;;;;5054445;28;20144;-59
2022/01/02 13:19:24;;;;;;;20.88;4.05;;;10.40;99.90;;;;;;5071526;28;20036;-60